sensor_id;sensor_type;location;lat;lon;timestamp;P1;durP1;ratioP1;P2;durP2;ratioP2
59728;SDS011;45588;51.598;5.618;2024-03-02T00:01:47;5.80;;;2.33;;
59728;SDS011;45588;51.598;5.618;2024-03-02T00:04:12;3.80;;;1.83;;
59728;SDS011;45588;51.598;5.618;2024-03-02T00:06:37;6.80;;;2.73;;
59728;SDS011;45588;51.598;5.618;2024-03-02T00:09:02;5.95;;;2.47;;
59728;SDS011;45588;51.598;5.618;2024-03-02T00:11:28;3.75;;;1.92;;
59728;SDS011;45588;51.598;5.618;2024-03-02T00:13:53;6.05;;;2.70;;
59728;SDS011;45588;51.598;5.618;2024-03-02T00:16:19;7.78;;;2.25;;
59728;SDS011;45588;51.598;5.618;2024-03-02T00:18:45;2.67;;;1.73;;
59728;SDS011;45588;51.598;5.618;2024-03-02T00:21:10;6.72;;;2.50;;
59728;SDS011;45588;51.598;5.618;2024-03-02T00:23:35;6.28;;;2.00;;
59728;SDS011;45588;51.598;5.618;2024-03-02T00:26:01;8.95;;;2.85;;
59728;SDS011;45588;51.598;5.618;2024-03-02T00:28:27;5.82;;;2.17;;
59728;SDS011;45588;51.598;5.618;2024-03-02T00:31:11;8.75;;;1.83;;
59728;SDS011;45588;51.598;5.618;2024-03-02T00:33:47;2.30;;;1.38;;
59728;SDS011;45588;51.598;5.618;2024-03-02T00:36:13;3.65;;;1.42;;
59728;SDS011;45588;51.598;5.618;2024-03-02T00:41:07;5.35;;;1.05;;
59728;SDS011;45588;51.598;5.618;2024-03-02T00:43:42;1.23;;;0.90;;
59728;SDS011;45588;51.598;5.618;2024-03-02T00:46:09;1.38;;;0.85;;
59728;SDS011;45588;51.598;5.618;2024-03-02T00:48:34;1.52;;;0.80;;
59728;SDS011;45588;51.598;5.618;2024-03-02T00:51:01;3.50;;;0.70;;
59728;SDS011;45588;51.598;5.618;2024-03-02T00:53:26;2.28;;;0.88;;
59728;SDS011;45588;51.598;5.618;2024-03-02T00:55:52;0.73;;;0.73;;
59728;SDS011;45588;51.598;5.618;2024-03-02T00:58:17;0.90;;;0.77;;
59728;SDS011;45588;51.598;5.618;2024-03-02T01:00:42;2.35;;;1.58;;
59728;SDS011;45588;51.598;5.618;2024-03-02T01:03:07;1.63;;;1.23;;
59728;SDS011;45588;51.598;5.618;2024-03-02T01:05:33;1.20;;;1.10;;
59728;SDS011;45588;51.598;5.618;2024-03-02T01:07:58;2.28;;;1.00;;
59728;SDS011;45588;51.598;5.618;2024-03-02T01:10:23;0.75;;;0.75;;
59728;SDS011;45588;51.598;5.618;2024-03-02T01:12:50;1.08;;;0.80;;
59728;SDS011;45588;51.598;5.618;2024-03-02T01:15:15;0.88;;;0.88;;
59728;SDS011;45588;51.598;5.618;2024-03-02T01:17:40;1.77;;;1.00;;
59728;SDS011;45588;51.598;5.618;2024-03-02T01:20:07;1.88;;;0.80;;
59728;SDS011;45588;51.598;5.618;2024-03-02T01:22:32;0.88;;;0.80;;
59728;SDS011;45588;51.598;5.618;2024-03-02T01:24:58;1.02;;;0.90;;
59728;SDS011;45588;51.598;5.618;2024-03-02T01:27:23;2.53;;;0.77;;
59728;SDS011;45588;51.598;5.618;2024-03-02T01:29:48;1.08;;;0.90;;
59728;SDS011;45588;51.598;5.618;2024-03-02T01:32:13;0.80;;;0.80;;
59728;SDS011;45588;51.598;5.618;2024-03-02T01:34:38;1.07;;;1.07;;
59728;SDS011;45588;51.598;5.618;2024-03-02T01:37:04;1.33;;;1.10;;
59728;SDS011;45588;51.598;5.618;2024-03-02T01:39:29;1.33;;;1.00;;
59728;SDS011;45588;51.598;5.618;2024-03-02T01:41:54;1.00;;;0.83;;
59728;SDS011;45588;51.598;5.618;2024-03-02T01:44:19;2.38;;;0.85;;
59728;SDS011;45588;51.598;5.618;2024-03-02T01:46:44;2.35;;;1.27;;
59728;SDS011;45588;51.598;5.618;2024-03-02T01:49:09;2.35;;;0.90;;
59728;SDS011;45588;51.598;5.618;2024-03-02T01:51:35;1.20;;;1.10;;
59728;SDS011;45588;51.598;5.618;2024-03-02T01:54:00;0.90;;;0.90;;
59728;SDS011;45588;51.598;5.618;2024-03-02T01:56:25;1.63;;;0.88;;
59728;SDS011;45588;51.598;5.618;2024-03-02T01:58:50;1.48;;;0.73;;
59728;SDS011;45588;51.598;5.618;2024-03-02T02:01:15;3.00;;;1.10;;
59728;SDS011;45588;51.598;5.618;2024-03-02T02:03:41;2.75;;;0.90;;
59728;SDS011;45588;51.598;5.618;2024-03-02T02:06:07;3.33;;;0.85;;
59728;SDS011;45588;51.598;5.618;2024-03-02T02:08:32;0.73;;;0.73;;
59728;SDS011;45588;51.598;5.618;2024-03-02T02:10:58;0.82;;;0.70;;
59728;SDS011;45588;51.598;5.618;2024-03-02T02:13:23;1.10;;;0.85;;
59728;SDS011;45588;51.598;5.618;2024-03-02T02:15:49;0.80;;;0.80;;
59728;SDS011;45588;51.598;5.618;2024-03-02T02:18:15;0.88;;;0.88;;
59728;SDS011;45588;51.598;5.618;2024-03-02T02:20:40;1.02;;;0.90;;
59728;SDS011;45588;51.598;5.618;2024-03-02T02:23:05;0.80;;;0.80;;
59728;SDS011;45588;51.598;5.618;2024-03-02T02:25:32;0.85;;;0.85;;
59728;SDS011;45588;51.598;5.618;2024-03-02T02:27:58;3.50;;;0.95;;
59728;SDS011;45588;51.598;5.618;2024-03-02T02:30:23;0.90;;;0.90;;
59728;SDS011;45588;51.598;5.618;2024-03-02T02:32:49;0.95;;;0.80;;
59728;SDS011;45588;51.598;5.618;2024-03-02T02:35:14;2.00;;;0.88;;
59728;SDS011;45588;51.598;5.618;2024-03-02T02:37:40;4.22;;;0.98;;
59728;SDS011;45588;51.598;5.618;2024-03-02T02:40:05;1.40;;;1.05;;
59728;SDS011;45588;51.598;5.618;2024-03-02T02:42:30;2.25;;;0.90;;
59728;SDS011;45588;51.598;5.618;2024-03-02T02:44:56;2.70;;;0.80;;
59728;SDS011;45588;51.598;5.618;2024-03-02T02:47:21;1.25;;;0.73;;
59728;SDS011;45588;51.598;5.618;2024-03-02T02:49:46;1.00;;;0.90;;
59728;SDS011;45588;51.598;5.618;2024-03-02T02:52:11;1.67;;;1.00;;
59728;SDS011;45588;51.598;5.618;2024-03-02T02:54:37;0.70;;;0.70;;
59728;SDS011;45588;51.598;5.618;2024-03-02T02:57:02;1.25;;;1.05;;
59728;SDS011;45588;51.598;5.618;2024-03-02T02:59:28;0.90;;;0.90;;
59728;SDS011;45588;51.598;5.618;2024-03-02T03:01:53;1.23;;;1.10;;
59728;SDS011;45588;51.598;5.618;2024-03-02T03:04:19;3.70;;;1.10;;
59728;SDS011;45588;51.598;5.618;2024-03-02T03:06:44;1.17;;;1.08;;
59728;SDS011;45588;51.598;5.618;2024-03-02T03:09:09;1.13;;;0.90;;
59728;SDS011;45588;51.598;5.618;2024-03-02T03:11:36;2.38;;;0.70;;
59728;SDS011;45588;51.598;5.618;2024-03-02T03:14:01;1.15;;;0.90;;
59728;SDS011;45588;51.598;5.618;2024-03-02T03:16:26;1.38;;;1.23;;
59728;SDS011;45588;51.598;5.618;2024-03-02T03:18:51;1.00;;;0.90;;
59728;SDS011;45588;51.598;5.618;2024-03-02T03:21:18;1.42;;;1.33;;
59728;SDS011;45588;51.598;5.618;2024-03-02T03:23:43;2.55;;;0.90;;
59728;SDS011;45588;51.598;5.618;2024-03-02T03:26:08;1.00;;;0.90;;
59728;SDS011;45588;51.598;5.618;2024-03-02T03:28:33;0.93;;;0.93;;
59728;SDS011;45588;51.598;5.618;2024-03-02T03:30:59;2.87;;;1.00;;
59728;SDS011;45588;51.598;5.618;2024-03-02T03:33:24;5.83;;;1.03;;
59728;SDS011;45588;51.598;5.618;2024-03-02T03:35:49;1.10;;;0.90;;
59728;SDS011;45588;51.598;5.618;2024-03-02T03:38:14;1.52;;;0.77;;
59728;SDS011;45588;51.598;5.618;2024-03-02T03:40:39;3.47;;;1.47;;
59728;SDS011;45588;51.598;5.618;2024-03-02T03:43:05;3.28;;;1.10;;
59728;SDS011;45588;51.598;5.618;2024-03-02T03:45:30;1.70;;;0.90;;
59728;SDS011;45588;51.598;5.618;2024-03-02T03:47:55;1.42;;;0.98;;
59728;SDS011;45588;51.598;5.618;2024-03-02T03:50:20;2.15;;;0.82;;
59728;SDS011;45588;51.598;5.618;2024-03-02T03:52:46;4.05;;;1.23;;
59728;SDS011;45588;51.598;5.618;2024-03-02T03:55:11;1.40;;;1.00;;
59728;SDS011;45588;51.598;5.618;2024-03-02T03:57:36;1.50;;;1.00;;
59728;SDS011;45588;51.598;5.618;2024-03-02T04:00:01;2.20;;;1.30;;
59728;SDS011;45588;51.598;5.618;2024-03-02T04:02:26;1.08;;;1.02;;
59728;SDS011;45588;51.598;5.618;2024-03-02T04:04:52;1.80;;;1.07;;
59728;SDS011;45588;51.598;5.618;2024-03-02T04:07:17;1.43;;;1.10;;
59728;SDS011;45588;51.598;5.618;2024-03-02T04:09:43;1.50;;;1.10;;
59728;SDS011;45588;51.598;5.618;2024-03-02T04:12:08;2.13;;;1.13;;
59728;SDS011;45588;51.598;5.618;2024-03-02T04:14:33;1.30;;;1.10;;
59728;SDS011;45588;51.598;5.618;2024-03-02T04:16:58;1.23;;;1.03;;
59728;SDS011;45588;51.598;5.618;2024-03-02T04:19:24;1.50;;;1.10;;
59728;SDS011;45588;51.598;5.618;2024-03-02T04:21:49;1.50;;;1.35;;
59728;SDS011;45588;51.598;5.618;2024-03-02T04:24:14;1.20;;;1.00;;
59728;SDS011;45588;51.598;5.618;2024-03-02T04:26:39;1.10;;;1.00;;
59728;SDS011;45588;51.598;5.618;2024-03-02T04:29:04;3.00;;;1.00;;
59728;SDS011;45588;51.598;5.618;2024-03-02T04:31:30;2.13;;;1.45;;
59728;SDS011;45588;51.598;5.618;2024-03-02T04:33:55;1.10;;;1.00;;
59728;SDS011;45588;51.598;5.618;2024-03-02T04:36:20;1.13;;;0.70;;
59728;SDS011;45588;51.598;5.618;2024-03-02T04:38:46;0.95;;;0.70;;
59728;SDS011;45588;51.598;5.618;2024-03-02T04:41:11;1.10;;;0.90;;
59728;SDS011;45588;51.598;5.618;2024-03-02T04:43:36;5.73;;;0.93;;
59728;SDS011;45588;51.598;5.618;2024-03-02T04:46:01;1.47;;;1.13;;
59728;SDS011;45588;51.598;5.618;2024-03-02T04:48:26;1.15;;;0.90;;
59728;SDS011;45588;51.598;5.618;2024-03-02T04:50:52;0.90;;;0.90;;
59728;SDS011;45588;51.598;5.618;2024-03-02T04:53:17;1.42;;;1.02;;
59728;SDS011;45588;51.598;5.618;2024-03-02T04:55:42;0.87;;;0.87;;
59728;SDS011;45588;51.598;5.618;2024-03-02T04:58:08;2.78;;;1.00;;
59728;SDS011;45588;51.598;5.618;2024-03-02T05:00:33;2.53;;;0.93;;
59728;SDS011;45588;51.598;5.618;2024-03-02T05:02:58;1.20;;;0.80;;
59728;SDS011;45588;51.598;5.618;2024-03-02T05:05:24;1.33;;;1.07;;
59728;SDS011;45588;51.598;5.618;2024-03-02T05:07:49;1.38;;;0.90;;
59728;SDS011;45588;51.598;5.618;2024-03-02T05:10:14;2.00;;;1.00;;
59728;SDS011;45588;51.598;5.618;2024-03-02T05:12:39;0.80;;;0.80;;
59728;SDS011;45588;51.598;5.618;2024-03-02T05:15:08;1.25;;;1.10;;
59728;SDS011;45588;51.598;5.618;2024-03-02T05:17:35;1.23;;;1.10;;
59728;SDS011;45588;51.598;5.618;2024-03-02T05:20:00;0.90;;;0.88;;
59728;SDS011;45588;51.598;5.618;2024-03-02T05:22:25;0.70;;;0.70;;
59728;SDS011;45588;51.598;5.618;2024-03-02T05:24:50;0.90;;;0.88;;
59728;SDS011;45588;51.598;5.618;2024-03-02T05:27:15;0.83;;;0.83;;
59728;SDS011;45588;51.598;5.618;2024-03-02T05:29:40;2.00;;;1.23;;
59728;SDS011;45588;51.598;5.618;2024-03-02T05:32:06;1.47;;;1.33;;
59728;SDS011;45588;51.598;5.618;2024-03-02T05:34:31;0.80;;;0.80;;
59728;SDS011;45588;51.598;5.618;2024-03-02T05:36:57;1.00;;;0.90;;
59728;SDS011;45588;51.598;5.618;2024-03-02T05:39:23;2.53;;;0.80;;
59728;SDS011;45588;51.598;5.618;2024-03-02T05:41:48;1.30;;;1.20;;
59728;SDS011;45588;51.598;5.618;2024-03-02T05:44:13;2.63;;;1.10;;
59728;SDS011;45588;51.598;5.618;2024-03-02T05:46:40;4.03;;;1.10;;
59728;SDS011;45588;51.598;5.618;2024-03-02T05:49:05;3.70;;;1.15;;
59728;SDS011;45588;51.598;5.618;2024-03-02T05:51:34;1.45;;;0.88;;
59728;SDS011;45588;51.598;5.618;2024-03-02T05:53:59;2.63;;;1.07;;
59728;SDS011;45588;51.598;5.618;2024-03-02T05:56:25;0.87;;;0.70;;
59728;SDS011;45588;51.598;5.618;2024-03-02T05:58:50;5.45;;;1.52;;
59728;SDS011;45588;51.598;5.618;2024-03-02T06:01:18;1.75;;;1.58;;
59728;SDS011;45588;51.598;5.618;2024-03-02T06:03:43;2.83;;;1.20;;
59728;SDS011;45588;51.598;5.618;2024-03-02T06:06:09;8.80;;;1.50;;
59728;SDS011;45588;51.598;5.618;2024-03-02T06:08:34;4.35;;;1.40;;
59728;SDS011;45588;51.598;5.618;2024-03-02T06:11:00;4.68;;;0.93;;
59728;SDS011;45588;51.598;5.618;2024-03-02T06:13:25;0.70;;;0.70;;
59728;SDS011;45588;51.598;5.618;2024-03-02T06:15:51;5.20;;;1.10;;
59728;SDS011;45588;51.598;5.618;2024-03-02T06:18:16;3.50;;;1.30;;
59728;SDS011;45588;51.598;5.618;2024-03-02T06:20:41;3.03;;;1.23;;
59728;SDS011;45588;51.598;5.618;2024-03-02T06:23:07;4.60;;;1.38;;
59728;SDS011;45588;51.598;5.618;2024-03-02T06:25:32;4.03;;;0.93;;
59728;SDS011;45588;51.598;5.618;2024-03-02T06:27:57;3.60;;;1.25;;
59728;SDS011;45588;51.598;5.618;2024-03-02T06:30:22;1.48;;;1.00;;
59728;SDS011;45588;51.598;5.618;2024-03-02T06:32:47;2.22;;;0.98;;
59728;SDS011;45588;51.598;5.618;2024-03-02T06:35:12;4.90;;;1.38;;
59728;SDS011;45588;51.598;5.618;2024-03-02T06:37:38;2.22;;;1.02;;
59728;SDS011;45588;51.598;5.618;2024-03-02T06:40:03;3.95;;;0.95;;
59728;SDS011;45588;51.598;5.618;2024-03-02T06:42:29;1.38;;;1.10;;
59728;SDS011;45588;51.598;5.618;2024-03-02T06:44:58;1.60;;;1.17;;
59728;SDS011;45588;51.598;5.618;2024-03-02T06:47:23;1.60;;;1.20;;
59728;SDS011;45588;51.598;5.618;2024-03-02T06:49:48;2.17;;;1.30;;
59728;SDS011;45588;51.598;5.618;2024-03-02T06:52:13;0.88;;;0.85;;
59728;SDS011;45588;51.598;5.618;2024-03-02T06:54:39;2.35;;;1.50;;
59728;SDS011;45588;51.598;5.618;2024-03-02T06:57:04;3.00;;;0.97;;
59728;SDS011;45588;51.598;5.618;2024-03-02T06:59:29;4.27;;;1.23;;
59728;SDS011;45588;51.598;5.618;2024-03-02T07:01:54;4.25;;;1.25;;
59728;SDS011;45588;51.598;5.618;2024-03-02T07:04:19;3.10;;;1.10;;
59728;SDS011;45588;51.598;5.618;2024-03-02T07:06:44;3.15;;;1.00;;
59728;SDS011;45588;51.598;5.618;2024-03-02T07:09:10;2.03;;;1.13;;
59728;SDS011;45588;51.598;5.618;2024-03-02T07:11:36;3.60;;;1.50;;
59728;SDS011;45588;51.598;5.618;2024-03-02T07:14:01;2.90;;;1.15;;
59728;SDS011;45588;51.598;5.618;2024-03-02T07:16:26;5.80;;;1.35;;
59728;SDS011;45588;51.598;5.618;2024-03-02T07:18:57;1.58;;;1.48;;
59728;SDS011;45588;51.598;5.618;2024-03-02T07:21:23;3.35;;;1.88;;
59728;SDS011;45588;51.598;5.618;2024-03-02T07:23:49;4.78;;;1.27;;
59728;SDS011;45588;51.598;5.618;2024-03-02T07:26:15;1.02;;;0.93;;
59728;SDS011;45588;51.598;5.618;2024-03-02T07:28:40;1.27;;;0.90;;
59728;SDS011;45588;51.598;5.618;2024-03-02T07:31:06;1.38;;;1.17;;
59728;SDS011;45588;51.598;5.618;2024-03-02T07:33:31;7.97;;;1.00;;
59728;SDS011;45588;51.598;5.618;2024-03-02T07:35:57;8.65;;;1.10;;
59728;SDS011;45588;51.598;5.618;2024-03-02T07:38:24;2.35;;;1.05;;
59728;SDS011;45588;51.598;5.618;2024-03-02T07:40:49;2.92;;;1.02;;
59728;SDS011;45588;51.598;5.618;2024-03-02T07:43:18;3.67;;;1.30;;
59728;SDS011;45588;51.598;5.618;2024-03-02T07:45:44;1.08;;;0.90;;
59728;SDS011;45588;51.598;5.618;2024-03-02T07:48:09;4.20;;;1.20;;
59728;SDS011;45588;51.598;5.618;2024-03-02T07:50:34;6.43;;;1.50;;
59728;SDS011;45588;51.598;5.618;2024-03-02T07:53:00;4.55;;;1.70;;
59728;SDS011;45588;51.598;5.618;2024-03-02T07:55:25;3.65;;;1.35;;
59728;SDS011;45588;51.598;5.618;2024-03-02T07:57:51;4.20;;;1.40;;
59728;SDS011;45588;51.598;5.618;2024-03-02T08:00:16;2.13;;;1.20;;
59728;SDS011;45588;51.598;5.618;2024-03-02T08:02:41;7.68;;;2.10;;
59728;SDS011;45588;51.598;5.618;2024-03-02T08:05:07;5.60;;;1.90;;
59728;SDS011;45588;51.598;5.618;2024-03-02T08:07:32;5.03;;;2.33;;
59728;SDS011;45588;51.598;5.618;2024-03-02T08:09:58;2.22;;;1.10;;
59728;SDS011;45588;51.598;5.618;2024-03-02T08:12:23;3.93;;;1.53;;
59728;SDS011;45588;51.598;5.618;2024-03-02T08:14:48;3.47;;;1.30;;
59728;SDS011;45588;51.598;5.618;2024-03-02T08:17:13;3.47;;;1.50;;
59728;SDS011;45588;51.598;5.618;2024-03-02T08:19:39;6.43;;;1.30;;
59728;SDS011;45588;51.598;5.618;2024-03-02T08:22:04;1.20;;;1.10;;
59728;SDS011;45588;51.598;5.618;2024-03-02T08:24:29;3.22;;;1.30;;
59728;SDS011;45588;51.598;5.618;2024-03-02T08:26:54;4.63;;;1.20;;
59728;SDS011;45588;51.598;5.618;2024-03-02T08:29:19;4.87;;;1.43;;
59728;SDS011;45588;51.598;5.618;2024-03-02T08:31:44;14.52;;;1.80;;
59728;SDS011;45588;51.598;5.618;2024-03-02T08:34:10;4.60;;;1.10;;
59728;SDS011;45588;51.598;5.618;2024-03-02T08:36:35;5.13;;;1.33;;
59728;SDS011;45588;51.598;5.618;2024-03-02T08:39:01;3.63;;;1.77;;
59728;SDS011;45588;51.598;5.618;2024-03-02T08:41:26;4.35;;;1.75;;
59728;SDS011;45588;51.598;5.618;2024-03-02T08:43:52;5.85;;;1.58;;
59728;SDS011;45588;51.598;5.618;2024-03-02T08:46:17;3.72;;;1.23;;
59728;SDS011;45588;51.598;5.618;2024-03-02T08:48:42;6.85;;;1.10;;
59728;SDS011;45588;51.598;5.618;2024-03-02T08:51:07;5.78;;;1.45;;
59728;SDS011;45588;51.598;5.618;2024-03-02T08:53:35;6.40;;;1.75;;
59728;SDS011;45588;51.598;5.618;2024-03-02T08:56:00;5.97;;;1.95;;
59728;SDS011;45588;51.598;5.618;2024-03-02T08:58:25;1.90;;;1.20;;
59728;SDS011;45588;51.598;5.618;2024-03-02T09:00:50;8.97;;;2.00;;
59728;SDS011;45588;51.598;5.618;2024-03-02T09:03:16;8.35;;;1.50;;
59728;SDS011;45588;51.598;5.618;2024-03-02T09:05:41;4.60;;;1.02;;
59728;SDS011;45588;51.598;5.618;2024-03-02T09:08:07;11.15;;;1.75;;
59728;SDS011;45588;51.598;5.618;2024-03-02T09:10:33;3.53;;;1.30;;
59728;SDS011;45588;51.598;5.618;2024-03-02T09:12:58;1.75;;;1.00;;
59728;SDS011;45588;51.598;5.618;2024-03-02T09:15:23;4.75;;;1.00;;
59728;SDS011;45588;51.598;5.618;2024-03-02T09:17:48;2.83;;;1.40;;
59728;SDS011;45588;51.598;5.618;2024-03-02T09:20:14;4.80;;;1.60;;
59728;SDS011;45588;51.598;5.618;2024-03-02T09:22:39;4.13;;;0.90;;
59728;SDS011;45588;51.598;5.618;2024-03-02T09:25:04;9.00;;;2.22;;
59728;SDS011;45588;51.598;5.618;2024-03-02T09:27:29;9.88;;;2.58;;
59728;SDS011;45588;51.598;5.618;2024-03-02T09:29:54;10.48;;;2.45;;
59728;SDS011;45588;51.598;5.618;2024-03-02T09:32:20;5.97;;;1.73;;
59728;SDS011;45588;51.598;5.618;2024-03-02T09:34:45;6.97;;;1.20;;
59728;SDS011;45588;51.598;5.618;2024-03-02T09:37:10;5.78;;;1.00;;
59728;SDS011;45588;51.598;5.618;2024-03-02T09:39:36;6.10;;;1.70;;
59728;SDS011;45588;51.598;5.618;2024-03-02T09:42:01;4.50;;;1.00;;
59728;SDS011;45588;51.598;5.618;2024-03-02T09:44:26;4.90;;;1.05;;
59728;SDS011;45588;51.598;5.618;2024-03-02T09:46:51;4.90;;;1.43;;
59728;SDS011;45588;51.598;5.618;2024-03-02T09:49:17;3.72;;;1.20;;
59728;SDS011;45588;51.598;5.618;2024-03-02T09:51:46;5.18;;;1.42;;
59728;SDS011;45588;51.598;5.618;2024-03-02T09:54:11;9.18;;;2.22;;
59728;SDS011;45588;51.598;5.618;2024-03-02T09:56:36;5.20;;;2.20;;
59728;SDS011;45588;51.598;5.618;2024-03-02T09:59:02;10.47;;;4.07;;
59728;SDS011;45588;51.598;5.618;2024-03-02T10:01:27;5.18;;;1.40;;
59728;SDS011;45588;51.598;5.618;2024-03-02T10:03:52;3.23;;;1.10;;
59728;SDS011;45588;51.598;5.618;2024-03-02T10:06:24;7.60;;;1.40;;
59728;SDS011;45588;51.598;5.618;2024-03-02T10:08:50;10.05;;;1.20;;
59728;SDS011;45588;51.598;5.618;2024-03-02T10:11:28;4.70;;;1.10;;
59728;SDS011;45588;51.598;5.618;2024-03-02T10:14:10;3.58;;;1.02;;
59728;SDS011;45588;51.598;5.618;2024-03-02T10:16:39;2.05;;;1.02;;
59728;SDS011;45588;51.598;5.618;2024-03-02T10:19:17;3.53;;;1.30;;
59728;SDS011;45588;51.598;5.618;2024-03-02T10:21:43;7.43;;;1.13;;
59728;SDS011;45588;51.598;5.618;2024-03-02T10:24:08;3.53;;;1.00;;
59728;SDS011;45588;51.598;5.618;2024-03-02T10:26:34;8.70;;;1.50;;
59728;SDS011;45588;51.598;5.618;2024-03-02T10:28:59;6.43;;;1.53;;
59728;SDS011;45588;51.598;5.618;2024-03-02T10:31:24;4.60;;;1.30;;
59728;SDS011;45588;51.598;5.618;2024-03-02T10:33:52;5.50;;;1.95;;
59728;SDS011;45588;51.598;5.618;2024-03-02T10:36:18;4.63;;;1.50;;
59728;SDS011;45588;51.598;5.618;2024-03-02T10:38:43;4.40;;;1.57;;
59728;SDS011;45588;51.598;5.618;2024-03-02T10:41:09;8.13;;;2.20;;
59728;SDS011;45588;51.598;5.618;2024-03-02T10:43:34;8.05;;;1.60;;
59728;SDS011;45588;51.598;5.618;2024-03-02T10:45:59;7.90;;;1.65;;
59728;SDS011;45588;51.598;5.618;2024-03-02T10:48:25;6.18;;;1.70;;
59728;SDS011;45588;51.598;5.618;2024-03-02T10:50:50;3.53;;;1.33;;
59728;SDS011;45588;51.598;5.618;2024-03-02T10:53:16;4.03;;;1.10;;
59728;SDS011;45588;51.598;5.618;2024-03-02T10:55:41;5.07;;;1.30;;
59728;SDS011;45588;51.598;5.618;2024-03-02T10:58:06;11.48;;;1.42;;
59728;SDS011;45588;51.598;5.618;2024-03-02T11:00:33;4.63;;;2.03;;
59728;SDS011;45588;51.598;5.618;2024-03-02T11:03:05;7.65;;;2.80;;
59728;SDS011;45588;51.598;5.618;2024-03-02T11:05:32;5.05;;;1.50;;
59728;SDS011;45588;51.598;5.618;2024-03-02T11:08:02;6.35;;;1.98;;
59728;SDS011;45588;51.598;5.618;2024-03-02T11:10:41;5.25;;;1.38;;
59728;SDS011;45588;51.598;5.618;2024-03-02T11:13:11;3.35;;;1.30;;
59728;SDS011;45588;51.598;5.618;2024-03-02T11:15:37;7.68;;;1.65;;
59728;SDS011;45588;51.598;5.618;2024-03-02T11:18:04;5.68;;;1.55;;
59728;SDS011;45588;51.598;5.618;2024-03-02T11:20:33;6.88;;;2.08;;
59728;SDS011;45588;51.598;5.618;2024-03-02T11:23:04;8.93;;;2.28;;
59728;SDS011;45588;51.598;5.618;2024-03-02T11:25:31;6.40;;;2.15;;
59728;SDS011;45588;51.598;5.618;2024-03-02T11:28:00;3.17;;;1.23;;
59728;SDS011;45588;51.598;5.618;2024-03-02T11:32:56;4.75;;;1.45;;
59728;SDS011;45588;51.598;5.618;2024-03-02T11:35:23;1.65;;;1.08;;
59728;SDS011;45588;51.598;5.618;2024-03-02T11:37:48;4.97;;;1.27;;
59728;SDS011;45588;51.598;5.618;2024-03-02T11:40:14;7.63;;;1.50;;
59728;SDS011;45588;51.598;5.618;2024-03-02T11:42:39;10.77;;;2.47;;
59728;SDS011;45588;51.598;5.618;2024-03-02T11:45:05;5.50;;;1.80;;
59728;SDS011;45588;51.598;5.618;2024-03-02T11:47:33;4.90;;;1.48;;
59728;SDS011;45588;51.598;5.618;2024-03-02T11:49:58;7.03;;;1.67;;
59728;SDS011;45588;51.598;5.618;2024-03-02T11:52:23;2.40;;;1.00;;
59728;SDS011;45588;51.598;5.618;2024-03-02T11:54:50;3.85;;;1.48;;
59728;SDS011;45588;51.598;5.618;2024-03-02T11:57:17;7.75;;;1.50;;
59728;SDS011;45588;51.598;5.618;2024-03-02T11:59:42;10.25;;;2.53;;
59728;SDS011;45588;51.598;5.618;2024-03-02T12:02:12;2.20;;;1.27;;
59728;SDS011;45588;51.598;5.618;2024-03-02T12:04:39;3.65;;;2.03;;
59728;SDS011;45588;51.598;5.618;2024-03-02T12:07:04;4.45;;;1.67;;
59728;SDS011;45588;51.598;5.618;2024-03-02T12:09:30;8.18;;;2.67;;
59728;SDS011;45588;51.598;5.618;2024-03-02T12:12:08;6.97;;;1.85;;
59728;SDS011;45588;51.598;5.618;2024-03-02T12:14:34;6.32;;;2.10;;
59728;SDS011;45588;51.598;5.618;2024-03-02T12:17:00;5.45;;;2.35;;
59728;SDS011;45588;51.598;5.618;2024-03-02T12:19:26;9.27;;;3.08;;
59728;SDS011;45588;51.598;5.618;2024-03-02T12:21:52;8.18;;;2.45;;
59728;SDS011;45588;51.598;5.618;2024-03-02T12:24:17;8.27;;;2.78;;
59728;SDS011;45588;51.598;5.618;2024-03-02T12:26:43;3.85;;;2.10;;
59728;SDS011;45588;51.598;5.618;2024-03-02T12:29:08;4.88;;;1.90;;
59728;SDS011;45588;51.598;5.618;2024-03-02T12:31:34;7.53;;;3.50;;
59728;SDS011;45588;51.598;5.618;2024-03-02T12:33:59;12.85;;;4.63;;
59728;SDS011;45588;51.598;5.618;2024-03-02T12:36:24;4.25;;;2.03;;
59728;SDS011;45588;51.598;5.618;2024-03-02T12:38:52;4.30;;;1.73;;
59728;SDS011;45588;51.598;5.618;2024-03-02T12:41:17;3.63;;;1.60;;
59728;SDS011;45588;51.598;5.618;2024-03-02T12:43:43;4.47;;;1.50;;
59728;SDS011;45588;51.598;5.618;2024-03-02T12:46:08;7.00;;;1.97;;
59728;SDS011;45588;51.598;5.618;2024-03-02T12:48:34;12.80;;;3.15;;
59728;SDS011;45588;51.598;5.618;2024-03-02T12:50:59;7.60;;;1.95;;
59728;SDS011;45588;51.598;5.618;2024-03-02T12:53:25;8.68;;;1.70;;
59728;SDS011;45588;51.598;5.618;2024-03-02T12:55:50;5.80;;;1.80;;
59728;SDS011;45588;51.598;5.618;2024-03-02T12:58:16;6.50;;;1.70;;
59728;SDS011;45588;51.598;5.618;2024-03-02T13:00:42;5.85;;;1.70;;
59728;SDS011;45588;51.598;5.618;2024-03-02T13:03:07;5.63;;;1.47;;
59728;SDS011;45588;51.598;5.618;2024-03-02T13:05:32;6.13;;;1.70;;
59728;SDS011;45588;51.598;5.618;2024-03-02T13:07:58;8.13;;;1.90;;
59728;SDS011;45588;51.598;5.618;2024-03-02T13:10:24;15.10;;;2.58;;
59728;SDS011;45588;51.598;5.618;2024-03-02T13:12:49;8.13;;;2.63;;
59728;SDS011;45588;51.598;5.618;2024-03-02T13:15:15;16.13;;;3.10;;
59728;SDS011;45588;51.598;5.618;2024-03-02T13:17:40;4.88;;;1.58;;
59728;SDS011;45588;51.598;5.618;2024-03-02T13:20:05;5.28;;;1.35;;
59728;SDS011;45588;51.598;5.618;2024-03-02T13:22:35;9.73;;;1.77;;
59728;SDS011;45588;51.598;5.618;2024-03-02T13:25:00;7.90;;;1.63;;
59728;SDS011;45588;51.598;5.618;2024-03-02T13:27:26;8.18;;;1.70;;
59728;SDS011;45588;51.598;5.618;2024-03-02T13:29:51;8.47;;;2.63;;
59728;SDS011;45588;51.598;5.618;2024-03-02T13:32:16;6.30;;;1.47;;
59728;SDS011;45588;51.598;5.618;2024-03-02T13:34:42;4.22;;;1.65;;
59728;SDS011;45588;51.598;5.618;2024-03-02T13:37:07;10.35;;;2.92;;
59728;SDS011;45588;51.598;5.618;2024-03-02T13:39:33;1.95;;;1.52;;
59728;SDS011;45588;51.598;5.618;2024-03-02T13:42:00;6.65;;;1.45;;
59728;SDS011;45588;51.598;5.618;2024-03-02T13:44:30;7.97;;;1.77;;
59728;SDS011;45588;51.598;5.618;2024-03-02T13:46:55;3.40;;;1.52;;
59728;SDS011;45588;51.598;5.618;2024-03-02T13:49:21;2.83;;;1.30;;
59728;SDS011;45588;51.598;5.618;2024-03-02T13:51:46;5.03;;;2.00;;
59728;SDS011;45588;51.598;5.618;2024-03-02T13:54:11;3.42;;;1.45;;
59728;SDS011;45588;51.598;5.618;2024-03-02T13:56:37;6.03;;;1.80;;
59728;SDS011;45588;51.598;5.618;2024-03-02T13:59:04;2.58;;;2.00;;
59728;SDS011;45588;51.598;5.618;2024-03-02T14:01:30;10.10;;;3.10;;
59728;SDS011;45588;51.598;5.618;2024-03-02T14:03:55;5.03;;;1.30;;
59728;SDS011;45588;51.598;5.618;2024-03-02T14:06:21;6.38;;;1.40;;
59728;SDS011;45588;51.598;5.618;2024-03-02T14:08:46;16.15;;;2.88;;
59728;SDS011;45588;51.598;5.618;2024-03-02T14:11:13;9.75;;;2.38;;
59728;SDS011;45588;51.598;5.618;2024-03-02T14:13:40;3.10;;;1.00;;
59728;SDS011;45588;51.598;5.618;2024-03-02T14:16:05;6.22;;;1.52;;
59728;SDS011;45588;51.598;5.618;2024-03-02T14:18:31;7.32;;;2.80;;
59728;SDS011;45588;51.598;5.618;2024-03-02T14:20:56;4.65;;;1.30;;
59728;SDS011;45588;51.598;5.618;2024-03-02T14:23:21;6.10;;;1.83;;
59728;SDS011;45588;51.598;5.618;2024-03-02T14:25:46;4.63;;;1.30;;
59728;SDS011;45588;51.598;5.618;2024-03-02T14:28:12;6.10;;;1.38;;
59728;SDS011;45588;51.598;5.618;2024-03-02T14:30:37;5.60;;;1.20;;
59728;SDS011;45588;51.598;5.618;2024-03-02T14:33:03;4.80;;;1.17;;
59728;SDS011;45588;51.598;5.618;2024-03-02T14:35:28;4.05;;;1.25;;
59728;SDS011;45588;51.598;5.618;2024-03-02T14:37:53;4.13;;;2.37;;
59728;SDS011;45588;51.598;5.618;2024-03-02T14:40:19;5.93;;;2.78;;
59728;SDS011;45588;51.598;5.618;2024-03-02T14:42:45;8.32;;;2.20;;
59728;SDS011;45588;51.598;5.618;2024-03-02T14:45:13;4.47;;;1.15;;